Tuesday, December 23, 2014
03:42 UTC
  |  Log In   |  Register Free
Airport Search:

Petaluma Municipal Airport
(KO69)

Petaluma Municipal Airport Diagram
No Airport Diagram Available

FAA data valid effective November 13, 2014 - January 08, 2015 (unless otherwise noted).

 
 
 
 
 
 
 
 
 
 
 
 
 
 

Current Aviation Weather for Petaluma Municipal Airport (KO69)

The most recent METAR observation for KO69 was updated at: 2113
METAR Summary (Translated METAR)
KO69
160545Z AUTO 13005KT 5SM FEW009 SCT013 BKN046 10/09 A2993 RMK AO1 P0003
KDVO
182055Z AUTO 13005KT 10SM OVC014 13/11 A3016 RMK AO2
(7.3 nm SE from KO69)
KAPC
182054Z 09009KT 10SM OVC014 13/11 A3016 RMK AO2 RAE27 SLP203 P0000 60000 T01280106 58008
(15.6 nm SE from KO69)
TAF
No TAF information found within 50 nm of KDVO
  Airport Weather Conditions for KO69

 Current Weather at O69
50° F
Mostly Cloudy
Southeast winds at 5.8 mph
O69 NOAA Radar

Pressure: 29.93 in
Humidity: 94%
Wind: Southeast at 5.8 MPH (5 KT)
Dew Point: 48.2°F
Visibility: 5.00 mi


Airport Weather Forecast for KO69

Translated METAR and TAF for KDVO
Translated METAR for KDVO (0343 UTC 23 December 2014)
found at http://aviationweather.gov/adds/metars/
 
METAR text: KDVO 230335Z AUTO 33006KT 10SM CLR 17/14 A3020 RMK AO2
Conditions at: KDVO (NOVATO/GNOSS FLD, CA, US) observed 0335 UTC 23 December 2014
Temperature: 17.0°C (63°F)
Dewpoint: 14.0°C (57°F) [RH = 82%]
Pressure (altimeter): 30.20 inches Hg (1022.8 mb)
Winds: from the NNW (330 degrees) at 7 MPH (6 knots; 3.1 m/s)
Visibility: 10 or more miles (16+ km)
Ceiling: at least 12,000 feet AGL
Clouds: sky clear below 12,000 feet AGL
Weather: automated observation with no human augmentation;
there may or may not be significant weather present at this time
Translated TAF for KDVO

There is no translated TAF available for this airport

Find All Airport Services Find A Hotel Find A Rental Car Find A Golf Course Find A Restaurant $100 Hamburger



FBO's on the Field
FBO Company Facility Photos Services Transportation Aviation Fuel Prices: Prices include tax
Catering Weather Repair Courtesy Rental Type 100LL JetA JetA+ MOGAS 8087
 
Petaluma Municipal Airport

Currently rated 4.8 by 1 person
FS:Independent
Last Updated: Dec-15
Login to update fuel prices
SS:
Contact Petaluma Municipal AirportMore FBO Information
 
Add another FBO Facility Photos Catering Weather Repair Courtesy Rental Type 100LL JetA JetA+ MOGAS 8087
Services Transportation Aviation Fuel Prices: Prices include tax


model-print
model-print
model-print
model-print